Accord, New York
Current Conditions -  °F | °C
As of 8:54 PM on Sunday 21 Dec 2014 (Local Time) from KMGJ Reporting Station
Overcast Overcast  
Wind Chill:   Ceiling: 3800
Heat Index:   Visibility: 10mi
Dew Point: -3°   Wind: 3mph
Humidity: 82%   Direction: 40°NE
Pressure: 30.33"   Gusts: NA
Location:  41.79°N, 74.23°W
Report Text: KMGJ 220154Z AUTO 04003KT 10SM OVC038 00/M03 A3033 RMK AO2 SLP276 T00001028 TSNO
Loading
Personal Weather Stations






























Interactive Weather Map New forecast layout! Learn more

10-Day Weather Forecast

Advertisements
Track Severe Weather on mobile